Wyoming, Illinois
Current Conditions -  °F | °C
As of 2:15 AM on Saturday 29 Nov 2014 (Local Time) from KC75 Reporting Station
Clear Clear  
Wind Chill: 29°   Ceiling: Unl
Heat Index: 35°   Visibility: 10mi
Dew Point: 31°   Wind: 7mph
Humidity: 85%   Direction: 160°SSE
Pressure: 29.78"   Gusts: NA
Location:  41.06°N, 89.77°W
Report Text: KC75 290815Z AUTO 16006KT 10SM CLR 02/M01 A2978 RMK AO2 T00171006
Loading
Personal Weather Stations






























Interactive Weather Map New forecast layout! Learn more

10-Day Weather Forecast

Advertisements
Track Severe Weather on mobile